createdAt,value
2017-09-24T00:04:04.767Z,51.8
2017-09-24T00:09:09.825Z,51.8
2017-09-24T00:14:14.886Z,51.8
2017-09-24T00:19:19.609Z,51.8
2017-09-24T00:24:24.672Z,51.7
2017-09-24T00:29:29.734Z,51.7
2017-09-24T00:34:34.791Z,51.7
2017-09-24T00:39:39.852Z,51.7
2017-09-24T00:44:45.247Z,51.7
2017-09-24T00:49:49.971Z,51.7
2017-09-24T00:54:55.365Z,51.7
2017-09-24T01:00:00.765Z,51.7
2017-09-24T01:05:05.493Z,51.7
2017-09-24T01:10:10.220Z,51.7
2017-09-24T01:15:14.945Z,51.7
2017-09-24T01:20:20.009Z,51.7
2017-09-24T01:25:25.737Z,51.7
2017-09-24T01:30:30.125Z,51.7
2017-09-24T01:35:35.186Z,51.7
2017-09-24T01:40:40.249Z,51.7
2017-09-24T01:45:45.304Z,51.7
2017-09-24T01:50:51.366Z,51.7
2017-09-24T01:55:56.756Z,51.7
2017-09-24T02:01:02.483Z,51.7
2017-09-24T02:06:07.209Z,51.7
2017-09-24T02:11:12.267Z,51.7
2017-09-24T02:16:16.991Z,51.8
2017-09-24T02:21:21.380Z,51.8
2017-09-24T02:26:26.440Z,51.8
2017-09-24T02:31:31.833Z,51.8
2017-09-24T02:36:37.229Z,51.8
2017-09-24T02:41:42.626Z,51.8
2017-09-24T02:46:48.020Z,51.8
2017-09-24T02:51:53.411Z,51.9
2017-09-24T02:56:58.136Z,51.9
2017-09-24T03:02:03.529Z,51.9
2017-09-24T03:07:08.256Z,51.9
2017-09-24T03:12:12.976Z,51.9
2017-09-24T03:17:18.034Z,51.9
2017-09-24T03:22:23.431Z,51.9
2017-09-24T03:27:28.481Z,51.9
2017-09-24T03:32:33.875Z,51.9
2017-09-24T03:37:39.267Z,51.9
2017-09-24T03:42:43.987Z,51.9
2017-09-24T03:47:48.038Z,51.9
2017-09-24T03:52:53.432Z,51.9
2017-09-24T03:57:57.818Z,51.9
2017-09-24T04:03:02.539Z,51.9
2017-09-24T04:08:07.262Z,51.9
2017-09-24T04:13:12.652Z,51.9
2017-09-24T04:18:17.708Z,51.9
2017-09-24T04:23:22.770Z,51.9
2017-09-24T04:28:27.160Z,52
2017-09-24T04:33:32.217Z,51.9
2017-09-24T04:38:37.276Z,51.9
2017-09-24T04:43:42.669Z,51.9
2017-09-24T04:48:48.066Z,51.9
2017-09-24T04:53:52.791Z,51.9
2017-09-24T04:58:57.176Z,51.9
2017-09-24T05:04:02.233Z,51.9
2017-09-24T05:09:07.289Z,51.9
2017-09-24T05:14:12.011Z,51.9
2017-09-24T05:19:17.070Z,51.9
2017-09-24T05:24:22.469Z,51.8
2017-09-24T05:29:27.520Z,51.9
2017-09-24T05:34:33.248Z,51.9
2017-09-24T05:39:38.311Z,51.9
2017-09-24T05:44:44.037Z,51.9
2017-09-24T05:49:49.098Z,51.9
2017-09-24T05:54:54.157Z,51.9
2017-09-24T05:59:59.214Z,51.9
2017-09-24T06:05:04.608Z,51.8
2017-09-24T06:10:10.003Z,51.8
2017-09-24T06:15:15.067Z,51.8
2017-09-24T06:20:19.793Z,51.8
2017-09-24T06:25:24.852Z,51.8
2017-09-24T06:30:30.246Z,51.8
2017-09-24T06:35:36.312Z,51.8
2017-09-24T06:40:41.036Z,51.8
2017-09-24T06:45:46.767Z,51.8
2017-09-24T06:50:52.164Z,51.9
2017-09-24T06:55:56.888Z,51.9
2017-09-24T07:01:01.286Z,51.9
2017-09-24T07:06:06.744Z,51.9
2017-09-24T07:11:12.205Z,52
2017-09-24T07:16:17.647Z,52
2017-09-24T07:21:22.705Z,52
2017-09-24T07:26:27.779Z,51.9
2017-09-24T07:31:33.180Z,51.9
2017-09-24T07:36:38.288Z,52
2017-09-24T07:41:43.346Z,52
2017-09-24T07:46:48.426Z,51.9
2017-09-24T07:51:53.489Z,52
2017-09-24T07:56:58.925Z,51.9
2017-09-24T08:02:03.992Z,51.9
2017-09-24T08:07:10.085Z,51.9
2017-09-24T08:12:16.154Z,51.9
2017-09-24T08:17:21.891Z,51.9
2017-09-24T08:22:26.957Z,52
2017-09-24T08:27:32.018Z,52.2
2017-09-24T08:32:37.426Z,52.4
2017-09-24T08:37:42.493Z,52.7
2017-09-24T08:42:47.226Z,52.9
2017-09-24T08:47:52.287Z,53
2017-09-24T08:52:58.035Z,53
2017-09-24T08:58:02.430Z,53
2017-09-24T09:03:07.160Z,53
2017-09-24T09:08:12.229Z,52.9
2017-09-24T09:13:17.298Z,52.9
2017-09-24T09:18:23.372Z,52.9
2017-09-24T09:23:28.772Z,53.2
2017-09-24T09:28:34.519Z,53.7
2017-09-24T09:33:39.576Z,53.9
2017-09-24T09:38:44.641Z,54
2017-09-24T09:43:50.370Z,54
2017-09-24T09:48:56.110Z,54.1
2017-09-24T09:54:01.505Z,54.2
2017-09-24T09:59:07.233Z,54.3
2017-09-24T10:04:12.630Z,54.3
2017-09-24T10:09:17.691Z,54.4
2017-09-24T10:14:23.090Z,54.5
2017-09-24T10:19:28.477Z,54.5
2017-09-24T10:24:33.209Z,54.5
2017-09-24T10:29:37.940Z,54.5
2017-09-24T10:34:42.326Z,54.4
2017-09-24T10:39:47.719Z,54.5
2017-09-24T10:44:52.781Z,54.4
2017-09-24T10:49:57.845Z,54.4
2017-09-24T10:55:02.902Z,54.4
2017-09-24T11:00:07.635Z,54.5
2017-09-24T11:05:13.022Z,54.5
2017-09-24T11:10:17.424Z,54.7
2017-09-24T11:15:22.144Z,54.8
2017-09-24T11:20:27.211Z,54.9
2017-09-24T11:25:32.622Z,54.9
2017-09-24T11:30:37.687Z,55
2017-09-24T11:35:42.076Z,55.1
2017-09-24T11:40:47.152Z,55.2
2017-09-24T11:45:52.227Z,55.2
2017-09-24T11:50:57.620Z,55.2
2017-09-24T11:56:02.702Z,55.2
2017-09-24T12:01:07.095Z,55.1
2017-09-24T12:06:12.160Z,55.2
2017-09-24T12:11:17.908Z,55.1
2017-09-24T12:16:23.642Z,55.1
2017-09-24T12:21:29.044Z,55.2
2017-09-24T12:26:34.102Z,55.2
2017-09-24T12:31:39.503Z,55.2
2017-09-24T12:36:45.231Z,55.3
2017-09-24T12:41:50.975Z,55.3
2017-09-24T12:46:56.041Z,55.3
2017-09-24T12:52:01.106Z,55.4
2017-09-24T12:57:06.169Z,55.4
2017-09-24T13:02:11.565Z,55.5
2017-09-24T13:07:17.632Z,55.5
2017-09-24T13:12:23.032Z,55.5
2017-09-24T13:17:28.434Z,55.5
2017-09-24T13:22:33.493Z,55.5
2017-09-24T13:27:38.554Z,55.5
2017-09-24T13:32:44.624Z,55.5
2017-09-24T13:37:49.360Z,55.5
2017-09-24T13:42:54.093Z,55.5
2017-09-24T13:47:59.161Z,55.4
2017-09-24T13:53:04.892Z,55.4
2017-09-24T13:58:09.618Z,55.4
2017-09-24T14:03:14.686Z,55.3
2017-09-24T14:08:19.751Z,55.3
2017-09-24T14:13:24.808Z,55.3
2017-09-24T14:18:30.542Z,55.3
2017-09-24T14:23:35.276Z,55.3
2017-09-24T14:28:40.343Z,55.3
2017-09-24T14:33:45.406Z,55.3
2017-09-24T14:38:50.476Z,55.3
2017-09-24T14:43:56.269Z,55.3
2017-09-24T14:49:02.088Z,55.4
2017-09-24T14:54:07.898Z,55.3
2017-09-24T14:59:13.317Z,55.4
2017-09-24T15:04:19.033Z,55.4
2017-09-24T15:09:24.510Z,55.4
2017-09-24T15:14:28.906Z,55.5
2017-09-24T15:19:34.326Z,55.5
2017-09-24T15:24:39.389Z,55.6
2017-09-24T15:29:44.801Z,55.6
2017-09-24T15:34:50.742Z,55.6
2017-09-24T15:39:56.366Z,55.6
2017-09-24T15:45:01.796Z,55.6
2017-09-24T15:50:07.872Z,55.5
2017-09-24T15:55:13.283Z,55.6
2017-09-24T16:00:18.699Z,55.7
2017-09-24T16:05:23.791Z,55.6
2017-09-24T16:10:29.201Z,55.4
2017-09-24T16:15:35.284Z,55.4
2017-09-24T16:20:41.045Z,55.6
2017-09-24T16:25:46.120Z,55.8
2017-09-24T16:30:51.192Z,56
2017-09-24T16:35:56.948Z,56
2017-09-24T16:41:02.349Z,56.3
2017-09-24T16:46:07.093Z,56.6
2017-09-24T16:51:12.496Z,56.7
2017-09-24T16:56:17.558Z,56.8
2017-09-24T17:01:22.287Z,56.8
2017-09-24T17:06:27.375Z,56.9
2017-09-24T17:11:32.782Z,57.1
2017-09-24T17:16:38.218Z,57.3
2017-09-24T17:21:42.608Z,57.4
2017-09-24T17:26:48.024Z,57.6
2017-09-24T17:31:53.425Z,57.7
2017-09-24T17:36:57.483Z,57.9
2017-09-24T17:42:02.896Z,58
2017-09-24T17:47:07.962Z,58.1
2017-09-24T17:52:13.361Z,58.2
2017-09-24T17:57:18.422Z,58.3
2017-09-24T18:02:23.494Z,58.3
2017-09-24T18:07:28.564Z,58.3
2017-09-24T18:12:33.980Z,58.4
2017-09-24T18:17:39.390Z,59
2017-09-24T18:22:44.454Z,59.9
2017-09-24T18:27:50.186Z,60.8
2017-09-24T18:32:55.591Z,61.2
2017-09-24T18:38:01.071Z,61.5
2017-09-24T18:43:05.930Z,61.7
2017-09-24T18:48:11.618Z,61.7
2017-09-24T18:53:16.047Z,61.6
2017-09-24T18:58:21.449Z,61.5
2017-09-24T19:03:26.187Z,61.3
2017-09-24T19:08:31.930Z,61.1
2017-09-24T19:13:36.669Z,60.9
2017-09-24T19:18:41.401Z,60.9
2017-09-24T19:23:46.465Z,60.7
2017-09-24T19:28:51.206Z,60.6
2017-09-24T19:33:56.283Z,60.6
2017-09-24T19:39:01.702Z,60.5
2017-09-24T19:44:06.782Z,60.5
2017-09-24T19:49:11.519Z,60.4
2017-09-24T19:54:16.588Z,60.4
2017-09-24T19:59:21.663Z,60.4
2017-09-24T20:04:26.735Z,60.5
2017-09-24T20:09:32.144Z,60.7
2017-09-24T20:14:37.226Z,60.8
2017-09-24T20:19:41.970Z,60.8
2017-09-24T20:24:46.708Z,60.7
2017-09-24T20:29:51.462Z,60.7
2017-09-24T20:34:56.869Z,60.6
2017-09-24T20:40:02.287Z,60.5
2017-09-24T20:45:07.692Z,60.5
2017-09-24T20:50:12.762Z,60.4
2017-09-24T20:55:17.841Z,60.3
2017-09-24T21:00:23.250Z,60.1
2017-09-24T21:05:28.993Z,60
2017-09-24T21:10:34.083Z,60
2017-09-24T21:15:39.150Z,60
2017-09-24T21:20:44.554Z,59.9
2017-09-24T21:25:49.617Z,59.9
2017-09-24T21:30:54.355Z,59.9
2017-09-24T21:35:59.422Z,59.9
2017-09-24T21:41:04.484Z,59.9
2017-09-24T21:46:09.208Z,59.8
2017-09-24T21:51:14.275Z,59.8
2017-09-24T21:56:18.996Z,59.8
2017-09-24T22:01:23.738Z,59.7
2017-09-24T22:06:28.804Z,59.8
2017-09-24T22:11:34.538Z,59.7
2017-09-24T22:16:39.261Z,59.7
2017-09-24T22:21:43.982Z,59.7
2017-09-24T22:26:49.380Z,59.6
2017-09-24T22:31:54.110Z,59.7
2017-09-24T22:36:59.846Z,59.6
2017-09-24T22:42:05.574Z,59.6
2017-09-24T22:47:10.638Z,59.6
2017-09-24T22:52:16.034Z,59.6
2017-09-24T22:57:22.104Z,59.6
2017-09-24T23:02:26.829Z,59.5
2017-09-24T23:07:31.902Z,59.6
2017-09-24T23:12:37.627Z,59.5
2017-09-24T23:17:43.022Z,59.5
2017-09-24T23:22:48.752Z,59.5
2017-09-24T23:27:53.483Z,59.5
2017-09-24T23:32:59.211Z,59.5
2017-09-24T23:38:04.940Z,59.5
2017-09-24T23:43:10.001Z,59.5
2017-09-24T23:48:14.395Z,59.5
2017-09-24T23:53:19.788Z,59.5
2017-09-24T23:58:24.883Z,59.4
